Time;durP1;ratioP1;P1;durP2;ratioP2;P2;SDS_P1;SDS_P2;PMS_P1;PMS_P2;Temp;Humidity;BMP_temperature;BMP_pressure;BME280_temperature;BME280_humidity;BME280_pressure;Samples;Min_cycle;Max_cycle;Signal;HPM_P1;HPM_P2
2022/01/27 00:01:01;;;;;;;18.82;9.18;;;;;;;5.55;79.98;101168.56;1722051;82;21041;-74
2022/01/27 00:03:26;;;;;;;20.15;9.40;;;;;;;5.53;80.07;101165.39;1723451;83;22355;-74
2022/01/27 00:05:52;;;;;;;23.80;10.20;;;;;;;5.54;80.17;101164.59;1724879;82;21236;-74
2022/01/27 00:08:22;;;;;;;21.55;8.83;;;;;;;5.53;80.13;101160.17;1725269;83;21052;-74
2022/01/27 00:11:07;;;;;;;17.80;9.08;;;;;;;5.52;80.15;101157.98;1725170;83;23393;-74
2022/01/27 00:13:31;;;;;;;19.10;8.38;;;;;;;5.54;80.17;101157.64;1724093;82;21634;-74
2022/01/27 00:16:21;;;;;;;16.50;8.08;;;;;;;5.55;80.13;101155.92;1726344;83;21614;-74
2022/01/27 00:18:47;;;;;;;21.77;9.45;;;;;;;5.55;80.13;101152.89;1725077;83;21080;-74
2022/01/27 00:21:14;;;;;;;19.23;8.23;;;;;;;5.51;80.16;101138.31;1726009;82;21077;-74
2022/01/27 00:23:41;;;;;;;25.82;8.68;;;;;;;5.57;80.18;101147.33;1701101;83;21803;-75
2022/01/27 00:26:11;;;;;;;21.20;9.60;;;;;;;5.59;80.22;101148.72;1725712;82;21073;-75
2022/01/27 00:28:38;;;;;;;22.50;10.10;;;;;;;5.59;80.17;101144.81;1726073;82;21101;-75
2022/01/27 00:31:05;;;;;;;21.55;9.75;;;;;;;5.59;80.13;101146.11;1725686;82;21049;-75
2022/01/27 00:33:32;;;;;;;25.45;10.23;;;;;;;5.58;80.17;101141.31;1725748;82;21093;-75
2022/01/27 00:36:00;;;;;;;22.15;10.25;;;;;;;5.60;80.20;101147.50;1700920;83;21309;-75
2022/01/27 00:38:29;;;;;;;21.62;10.10;;;;;;;5.60;80.20;101134.45;1725595;83;21041;-75
2022/01/27 00:41:03;;;;;;;22.30;9.90;;;;;;;5.63;80.25;101139.84;1725844;82;21084;-75
2022/01/27 00:43:28;;;;;;;24.63;10.80;;;;;;;5.65;80.25;101137.31;1725475;82;21553;-75
2022/01/27 00:45:56;;;;;;;28.35;11.12;;;;;;;5.68;80.28;101143.09;1725647;83;21056;-75
2022/01/27 00:48:27;;;;;;;29.35;10.40;;;;;;;5.70;80.19;101144.95;1725947;82;21783;-75
2022/01/27 00:51:00;;;;;;;26.62;10.50;;;;;;;5.69;80.16;101134.42;1725477;83;21124;-75
2022/01/27 00:56:06;;;;;;;24.23;10.78;;;;;;;5.68;80.13;101133.53;1726354;82;21137;-75
2022/01/27 01:01:02;;;;;;;20.95;9.68;;;;;;;5.71;80.10;101123.67;1701367;83;21214;-74
2022/01/27 01:03:33;;;;;;;22.25;10.18;;;;;;;5.70;80.17;101121.44;1725735;83;22268;-74
2022/01/27 01:06:24;;;;;;;25.27;9.80;;;;;;;5.73;80.18;101113.77;1725359;83;21690;-74
2022/01/27 01:16:55;;;;;;;26.95;11.18;;;;;;;5.75;80.22;101108.21;1725702;82;21148;-75
2022/01/27 01:29:21;;;;;;;26.42;12.45;;;;;;;5.74;80.25;101091.15;1726033;83;21193;-75
2022/01/27 01:30:07;;;;;;;28.07;11.55;;;;;;;5.65;80.25;101068.10;1726163;82;21530;-75
2022/01/27 01:32:39;;;;;;;27.05;11.00;;;;;;;5.75;80.33;101078.17;1723732;82;21096;-75
2022/01/27 01:34:54;;;;;;;27.62;11.22;;;;;;;5.79;80.20;101076.61;1723524;83;21080;-75
2022/01/27 01:37:21;;;;;;;22.35;9.95;;;;;;;5.75;80.18;101082.09;1726006;82;21359;-75
2022/01/27 01:39:49;;;;;;;34.75;10.43;;;;;;;5.75;80.20;101079.90;1700918;83;21064;-75
2022/01/27 01:42:21;;;;;;;26.82;11.08;;;;;;;5.74;80.17;101080.28;1725559;82;21092;-75
2022/01/27 01:44:49;;;;;;;25.05;11.03;;;;;;;5.75;80.19;101083.40;1726037;83;21072;-75
2022/01/27 01:47:20;;;;;;;24.05;10.95;;;;;;;5.76;80.18;101079.06;1725710;83;21081;-75
2022/01/27 01:49:46;;;;;;;27.73;11.12;;;;;;;5.77;80.11;101083.48;1725548;83;21616;-75
2022/01/27 01:52:14;;;;;;;28.27;11.08;;;;;;;5.75;80.06;101075.98;1698219;83;21677;-75
2022/01/27 01:54:43;;;;;;;27.73;10.58;;;;;;;5.76;80.11;101070.84;1688651;83;21088;-75
2022/01/27 01:57:12;;;;;;;23.62;10.35;;;;;;;5.77;80.09;101068.70;1725361;82;21092;-75
2022/01/27 01:59:39;;;;;;;26.95;10.10;;;;;;;5.77;80.10;101072.61;1725425;82;21123;-75
2022/01/27 02:02:08;;;;;;;25.23;10.20;;;;;;;5.80;80.10;101070.16;1725628;83;21632;-75
2022/01/27 02:04:34;;;;;;;27.62;10.50;;;;;;;5.82;80.02;101067.63;1725543;83;21769;-75
2022/01/27 02:07:03;;;;;;;24.63;9.55;;;;;;;5.82;80.02;101070.25;1725743;83;21753;-75
2022/01/27 02:17:58;;;;;;;21.40;9.70;;;;;;;5.84;79.89;101077.75;1720069;83;21975;-75
2022/01/27 02:20:19;;;;;;;24.45;9.90;;;;;;;5.83;79.86;101072.91;1718294;83;21450;-75
2022/01/27 02:22:45;;;;;;;24.40;9.83;;;;;;;5.82;79.83;101070.25;1720271;83;21073;-75
2022/01/27 02:25:14;;;;;;;25.02;9.33;;;;;;;5.83;79.84;101063.77;1693138;83;21364;-75
2022/01/27 02:27:40;;;;;;;24.98;10.35;;;;;;;5.82;79.82;101059.80;1720148;81;21061;-75
2022/01/27 02:30:08;;;;;;;23.25;9.70;;;;;;;5.81;79.83;101052.34;1719732;83;21954;-75
2022/01/27 02:32:35;;;;;;;23.40;10.13;;;;;;;5.82;79.82;101059.80;1719872;83;21107;-75
2022/01/27 02:35:07;;;;;;;21.45;9.60;;;;;;;5.83;79.93;101047.20;1719708;83;21638;-75
2022/01/27 02:37:37;;;;;;;27.32;10.35;;;;;;;5.83;79.88;101041.55;1719808;83;21614;-75
2022/01/27 02:40:05;;;;;;;21.02;8.65;;;;;;;5.83;79.89;101036.33;1720195;83;21148;-75
2022/01/27 02:42:37;;;;;;;22.67;8.85;;;;;;;5.83;79.87;101036.75;1719967;82;21088;-75
2022/01/27 02:45:24;;;;;;;23.07;10.20;;;;;;;5.75;79.84;101025.05;1720533;82;21140;-75
2022/01/27 02:47:49;;;;;;;21.90;8.85;;;;;;;5.80;79.85;101043.12;1637776;87;21107;-75
2022/01/27 02:50:16;;;;;;;21.62;10.23;;;;;;;5.79;79.92;101029.59;1715357;83;21069;-75
2022/01/27 02:52:43;;;;;;;21.12;9.20;;;;;;;5.79;79.90;101035.70;1715328;83;21092;-75
2022/01/27 02:55:11;;;;;;;24.70;10.03;;;;;;;5.79;79.88;101023.06;1714910;83;21668;-75
2022/01/27 02:57:40;;;;;;;20.65;9.38;;;;;;;5.79;79.81;101026.98;1692327;83;21639;-75
2022/01/27 03:00:07;;;;;;;21.55;9.20;;;;;;;5.80;79.84;101015.69;1715343;83;21547;-75
2022/01/27 03:02:35;;;;;;;22.93;9.78;;;;;;;5.79;79.83;101010.00;1715202;83;21713;-75
2022/01/27 03:05:03;;;;;;;22.05;9.65;;;;;;;5.80;79.83;101020.92;1715332;83;21179;-75
2022/01/27 03:07:30;;;;;;;21.35;10.43;;;;;;;5.80;79.76;101011.39;1715331;83;22683;-75
2022/01/27 03:09:57;;;;;;;23.45;10.48;;;;;;;5.79;79.73;101008.27;1715223;83;21081;-75
2022/01/27 03:12:27;;;;;;;25.27;11.03;;;;;;;5.79;79.72;100991.30;1715086;83;22383;-75
2022/01/27 03:14:53;;;;;;;24.05;10.98;;;;;;;5.80;79.73;100998.71;1715163;83;21998;-75
2022/01/27 03:17:22;;;;;;;24.70;10.88;;;;;;;5.78;79.73;100985.99;1715328;83;21077;-74
2022/01/27 03:19:49;;;;;;;20.48;10.75;;;;;;;5.78;79.72;100985.61;1715458;83;21851;-75
2022/01/27 03:22:15;;;;;;;24.92;10.88;;;;;;;5.78;79.72;100976.47;1715374;83;21104;-74
2022/01/27 03:24:42;;;;;;;21.97;11.30;;;;;;;5.79;79.65;100972.13;1715371;83;21118;-76
2022/01/27 03:27:25;;;;;;;22.85;10.40;;;;;;;5.77;79.59;100958.98;1715138;83;21081;-75
2022/01/27 03:29:49;;;;;;;23.07;10.85;;;;;;;5.79;79.56;100959.06;1714861;83;21582;-75
2022/01/27 03:32:16;;;;;;;20.05;10.68;;;;;;;5.79;79.53;100954.73;1715056;83;22652;-75
2022/01/27 03:34:45;;;;;;;25.08;11.05;;;;;;;5.81;79.61;100941.75;1714683;83;21108;-74
2022/01/27 03:37:11;;;;;;;19.67;11.05;;;;;;;5.81;79.56;100941.33;1715179;83;21155;-74
2022/01/27 03:39:42;;;;;;;22.07;11.55;;;;;;;5.83;79.54;100942.28;1714943;83;21685;-74
2022/01/27 03:42:12;;;;;;;18.60;10.45;;;;;;;5.83;79.49;100930.53;1715073;82;21124;-74
2022/01/27 03:44:38;;;;;;;19.05;11.35;;;;;;;5.81;79.40;100926.07;1715458;83;21789;-74
2022/01/27 03:47:05;;;;;;;17.48;10.00;;;;;;;5.82;79.45;100917.43;1715220;83;21422;-74
2022/01/27 03:49:32;;;;;;;19.70;10.80;;;;;;;5.78;79.38;100915.47;1714993;83;21622;-74
2022/01/27 03:52:01;;;;;;;19.67;10.70;;;;;;;5.79;79.43;100927.72;1715073;83;21133;-74
2022/01/27 03:54:27;;;;;;;17.00;10.55;;;;;;;5.78;79.51;100926.83;1715102;83;21104;-74
2022/01/27 03:56:54;;;;;;;20.10;10.78;;;;;;;5.78;79.53;100919.00;1715150;83;21677;-74
2022/01/27 03:59:21;;;;;;;20.00;10.30;;;;;;;5.75;79.57;100916.65;1715078;83;21089;-74
2022/01/27 04:01:50;;;;;;;22.65;10.48;;;;;;;5.74;79.65;100913.12;1692343;83;21065;-74
2022/01/27 04:04:17;;;;;;;21.70;10.15;;;;;;;5.72;79.71;100904.32;1714954;83;21041;-73
2022/01/27 04:06:44;;;;;;;16.73;9.78;;;;;;;5.72;79.74;100894.30;1715198;83;21096;-75
2022/01/27 04:09:12;;;;;;;18.00;9.83;;;;;;;5.72;79.78;100885.16;1715102;83;21112;-74
2022/01/27 04:11:41;;;;;;;15.05;8.75;;;;;;;5.70;79.72;100885.50;1692321;83;21132;-73
2022/01/27 04:14:10;;;;;;;18.73;8.60;;;;;;;5.69;79.78;100882.39;1715226;83;21637;-74
2022/01/27 04:16:41;;;;;;;13.50;7.58;;;;;;;5.67;79.85;100877.50;1715284;83;21133;-73
2022/01/27 04:19:12;;;;;;;13.95;7.90;;;;;;;5.67;79.88;100879.73;1714829;83;21581;-73
2022/01/27 04:21:37;;;;;;;16.93;7.55;;;;;;;5.67;79.92;100878.81;1714904;83;21771;-74
2022/01/27 04:24:05;;;;;;;11.43;6.58;;;;;;;5.65;79.91;100873.55;1714820;83;21088;-74
2022/01/27 04:26:43;;;;;;;11.65;7.30;;;;;;;5.62;79.94;100872.08;1692241;83;21092;-75
2022/01/27 04:29:06;;;;;;;8.25;5.87;;;;;;;5.60;79.98;100867.20;1714048;83;21645;-75
2022/01/27 04:31:39;;;;;;;11.43;6.60;;;;;;;5.59;80.00;100869.31;1714964;83;21108;-75
2022/01/27 04:34:03;;;;;;;8.73;5.40;;;;;;;5.57;80.10;100863.13;1714355;83;21722;-75
2022/01/27 04:36:31;;;;;;;10.13;5.12;;;;;;;5.53;80.00;100852.06;1714987;83;21084;-74
2022/01/27 04:39:22;;;;;;;9.75;4.72;;;;;;;5.51;80.01;100857.21;1714984;83;21144;-74
2022/01/27 04:41:57;;;;;;;9.48;5.10;;;;;;;5.49;80.08;100856.25;1713894;82;21795;-75
2022/01/27 04:44:33;;;;;;;8.10;5.10;;;;;;;5.52;80.11;100852.88;1714350;83;21073;-75
2022/01/27 04:47:01;;;;;;;6.78;4.00;;;;;;;5.49;80.03;100841.89;1713920;83;21822;-75
2022/01/27 04:49:21;;;;;;;6.87;4.33;;;;;;;5.48;80.07;100836.59;1714015;83;21171;-75
2022/01/27 04:51:49;;;;;;;6.62;4.47;;;;;;;5.46;80.10;100833.90;1715169;83;21617;-75
2022/01/27 04:54:22;;;;;;;7.00;4.67;;;;;;;5.42;80.05;100834.20;1715040;83;21504;-75
2022/01/27 04:56:44;;;;;;;7.83;5.17;;;;;;;5.40;80.04;100833.63;1714247;83;21100;-79
2022/01/27 04:59:22;;;;;;;8.30;5.05;;;;;;;5.41;80.16;100836.31;1715095;83;22570;-78
2022/01/27 05:01:51;;;;;;;7.15;4.95;;;;;;;5.41;80.12;100832.39;1714262;83;21140;-77
2022/01/27 05:04:17;;;;;;;8.85;5.47;;;;;;;5.40;80.12;100836.23;1713959;82;21079;-77
2022/01/27 05:06:46;;;;;;;12.23;6.72;;;;;;;5.38;80.18;100836.16;1714545;83;21271;-78
2022/01/27 05:09:16;;;;;;;14.63;7.55;;;;;;;5.42;80.29;100837.19;1714793;83;21117;-79
2022/01/27 05:11:54;;;;;;;11.08;7.12;;;;;;;5.41;80.24;100836.31;1714474;82;21154;-77
2022/01/27 05:14:22;;;;;;;13.88;8.68;;;;;;;5.44;80.27;100834.24;1714363;83;21393;-77
2022/01/27 05:16:46;;;;;;;16.17;8.85;;;;;;;5.44;80.29;100827.72;1714445;82;21094;-77
2022/01/27 05:19:15;;;;;;;15.83;10.25;;;;;;;5.46;80.34;100814.31;1689667;83;21149;-77
2022/01/27 05:21:43;;;;;;;16.62;10.75;;;;;;;5.47;80.34;100813.93;1714596;82;21698;-83
2022/01/27 05:24:14;;;;;;;19.03;11.00;;;;;;;5.45;80.28;100815.16;1690436;82;21098;-83
2022/01/27 05:26:43;;;;;;;19.57;12.53;;;;;;;5.38;80.32;100793.50;1689721;83;21114;-81
2022/01/27 05:29:15;;;;;;;21.35;12.98;;;;;;;5.42;80.29;100787.59;1714980;82;21110;-83
2022/01/27 05:31:46;;;;;;;23.22;13.38;;;;;;;5.39;80.31;100787.05;1713561;83;21103;-82
2022/01/27 05:34:12;;;;;;;22.00;13.40;;;;;;;5.37;80.37;100783.48;1715055;82;21028;-81
2022/01/27 05:36:42;;;;;;;24.43;13.20;;;;;;;5.38;80.44;100797.42;1715095;83;21741;-80
2022/01/27 05:39:12;;;;;;;22.65;13.70;;;;;;;5.37;80.41;100802.17;1690228;83;21680;-81
2022/01/27 05:41:36;;;;;;;22.67;13.50;;;;;;;5.35;80.43;100800.80;1714202;82;21122;-79
2022/01/27 05:44:06;;;;;;;21.48;12.98;;;;;;;5.34;80.42;100800.30;1697233;83;21152;-87
2022/01/27 05:46:32;;;;;;;19.98;11.80;;;;;;;5.34;80.49;100799.41;1697065;84;21116;-77
2022/01/27 05:49:05;;;;;;;20.70;12.07;;;;;;;5.35;80.50;100806.02;1697134;84;21740;-77
2022/01/27 05:51:31;;;;;;;18.27;11.45;;;;;;;5.37;80.47;100803.06;1696517;84;21085;-77
2022/01/27 05:53:57;;;;;;;17.77;11.45;;;;;;;5.36;80.43;100797.77;1696888;84;21034;-78
2022/01/27 05:56:24;;;;;;;19.82;10.82;;;;;;;5.35;80.42;100790.73;1697017;84;21100;-78
2022/01/27 05:58:54;;;;;;;17.55;10.75;;;;;;;5.32;80.32;100787.59;1697167;83;21184;-79
2022/01/27 06:01:21;;;;;;;19.75;10.78;;;;;;;5.30;80.34;100780.52;1696262;84;21792;-79
2022/01/27 06:03:48;;;;;;;17.75;11.28;;;;;;;5.30;80.40;100774.00;1695402;84;21156;-78
2022/01/27 06:06:14;;;;;;;22.13;12.25;;;;;;;5.30;80.40;100763.13;1696731;84;21108;-79
2022/01/27 06:08:41;;;;;;;16.80;11.15;;;;;;;5.29;80.39;100754.80;1697076;84;21112;-79
2022/01/27 06:11:13;;;;;;;24.72;14.35;;;;;;;5.28;80.44;100750.84;1668441;84;21514;-78
2022/01/27 06:13:38;;;;;;;24.75;12.07;;;;;;;5.26;80.43;100745.13;1696462;83;21811;-78
2022/01/27 06:16:10;;;;;;;25.08;13.45;;;;;;;5.24;80.53;100732.84;1695289;84;21085;-78
2022/01/27 06:18:38;;;;;;;22.20;13.53;;;;;;;5.28;80.69;100733.88;1697003;84;21148;-77
2022/01/27 06:21:06;;;;;;;22.02;13.25;;;;;;;5.26;80.63;100720.34;1696879;84;21657;-78
2022/01/27 06:23:33;;;;;;;26.48;14.53;;;;;;;5.23;80.54;100717.58;1697039;84;21239;-76
2022/01/27 06:26:00;;;;;;;23.57;13.53;;;;;;;5.17;80.53;100714.70;1697554;84;21652;-77
2022/01/27 06:28:27;;;;;;;24.43;13.35;;;;;;;5.16;80.61;100710.31;1697375;83;21369;-76
2022/01/27 06:30:54;;;;;;;21.68;13.38;;;;;;;5.14;80.60;100705.83;1696975;84;21639;-76
2022/01/27 06:33:22;;;;;;;25.05;13.72;;;;;;;5.09;80.62;100708.23;1697096;84;21096;-76
2022/01/27 06:35:49;;;;;;;21.57;13.30;;;;;;;5.05;80.62;100708.92;1697378;84;21112;-76
2022/01/27 06:38:17;;;;;;;27.22;13.40;;;;;;;5.01;80.63;100700.06;1697353;84;22574;-76
2022/01/27 06:40:44;;;;;;;22.80;14.00;;;;;;;4.98;80.73;100698.60;1697087;83;21654;-76
2022/01/27 06:43:19;;;;;;;25.30;13.65;;;;;;;4.98;80.82;100691.20;1696923;83;21104;-77
2022/01/27 06:45:44;;;;;;;25.37;14.75;;;;;;;4.97;80.87;100683.76;1697129;83;21685;-76
2022/01/27 06:48:10;;;;;;;26.00;14.47;;;;;;;4.96;80.81;100681.99;1697396;84;21125;-76
2022/01/27 06:50:38;;;;;;;23.90;15.03;;;;;;;4.93;80.86;100676.63;1697216;84;21790;-76
2022/01/27 06:53:05;;;;;;;29.67;16.32;;;;;;;4.92;80.85;100670.94;1697662;84;21136;-75
2022/01/27 06:55:32;;;;;;;30.43;15.88;;;;;;;4.89;80.88;100665.56;1697524;84;21084;-75
2022/01/27 06:57:59;;;;;;;26.60;15.83;;;;;;;4.87;80.94;100665.91;1697500;83;21145;-75
2022/01/27 07:00:25;;;;;;;24.12;14.87;;;;;;;4.88;81.02;100654.67;1697426;83;21497;-78
2022/01/27 07:02:53;;;;;;;26.37;14.95;;;;;;;4.91;81.11;100654.79;1697354;84;22536;-75
2022/01/27 07:05:19;;;;;;;23.92;14.35;;;;;;;4.92;81.14;100646.16;1669649;84;21073;-76
2022/01/27 07:07:46;;;;;;;32.28;17.52;;;;;;;4.92;81.06;100643.94;1697394;83;21116;-78
2022/01/27 07:10:13;;;;;;;23.40;14.20;;;;;;;4.92;81.09;100634.81;1697294;84;21325;-77
2022/01/27 07:12:41;;;;;;;23.92;14.93;;;;;;;4.94;81.07;100627.56;1697224;84;21117;-78
2022/01/27 07:15:09;;;;;;;23.12;13.60;;;;;;;4.94;81.05;100622.77;1697262;84;21714;-75
2022/01/27 07:17:36;;;;;;;28.80;16.00;;;;;;;4.94;81.09;100614.94;1697379;84;21073;-75
2022/01/27 07:20:02;;;;;;;25.95;14.80;;;;;;;4.89;81.01;100607.31;1697316;84;21089;-76
2022/01/27 07:22:32;;;;;;;25.48;15.15;;;;;;;4.84;81.04;100600.17;1697138;84;21725;-76
2022/01/27 07:24:59;;;;;;;25.15;14.40;;;;;;;4.84;81.17;100593.66;1697034;84;21139;-76
2022/01/27 07:27:25;;;;;;;23.27;13.05;;;;;;;4.84;81.31;100588.82;1697131;84;21742;-76
2022/01/27 07:29:52;;;;;;;25.77;13.50;;;;;;;4.83;81.23;100583.14;1697046;84;21106;-76
2022/01/27 07:32:19;;;;;;;26.85;14.70;;;;;;;4.81;81.26;100579.16;1697056;84;21601;-76
2022/01/27 07:34:45;;;;;;;24.43;13.65;;;;;;;4.82;81.20;100577.05;1697032;84;21145;-76
2022/01/27 07:37:12;;;;;;;22.70;12.60;;;;;;;4.82;81.16;100569.61;1697272;84;21099;-76
2022/01/27 07:39:39;;;;;;;22.60;13.35;;;;;;;4.81;81.19;100575.67;1697178;83;21751;-76
2022/01/27 07:42:05;;;;;;;25.62;12.85;;;;;;;4.80;81.15;100569.95;1697228;84;21108;-76
2022/01/27 07:44:32;;;;;;;19.50;11.65;;;;;;;4.73;81.15;100560.98;1713324;82;21110;-76
2022/01/27 07:46:59;;;;;;;26.87;13.18;;;;;;;4.75;81.08;100565.85;1714789;82;21612;-76
2022/01/27 07:49:25;;;;;;;20.15;11.57;;;;;;;4.71;81.06;100558.72;1715141;83;21727;-76
2022/01/27 07:51:52;;;;;;;22.27;12.75;;;;;;;4.67;81.12;100560.68;1714932;83;21740;-76
2022/01/27 07:54:19;;;;;;;21.37;11.78;;;;;;;4.65;81.18;100553.20;1714828;82;21146;-76
2022/01/27 07:56:45;;;;;;;19.52;11.10;;;;;;;4.65;81.24;100553.20;1715016;83;21624;-76
2022/01/27 07:59:12;;;;;;;16.85;11.05;;;;;;;4.67;81.35;100547.25;1714901;83;21173;-76
2022/01/27 08:01:39;;;;;;;20.00;12.55;;;;;;;4.69;81.29;100539.48;1714913;83;21086;-75
2022/01/27 08:04:05;;;;;;;18.10;11.83;;;;;;;4.68;81.21;100535.10;1714806;83;21785;-76
2022/01/27 08:06:32;;;;;;;16.02;10.53;;;;;;;4.67;81.21;100535.52;1715022;82;21175;-76
2022/01/27 08:08:58;;;;;;;21.52;13.80;;;;;;;4.66;81.21;100530.23;1715026;83;21067;-76
2022/01/27 08:11:25;;;;;;;17.48;12.13;;;;;;;4.69;81.24;100530.34;1714777;83;21138;-76
2022/01/27 08:13:51;;;;;;;16.15;9.68;;;;;;;4.71;81.26;100526.13;1715084;83;21078;-76
2022/01/27 08:16:18;;;;;;;19.27;11.40;;;;;;;4.73;81.20;100523.17;1714971;82;21770;-76
2022/01/27 08:18:45;;;;;;;12.82;8.63;;;;;;;4.73;81.08;100515.73;1714692;83;21098;-76
2022/01/27 08:21:11;;;;;;;15.53;9.85;;;;;;;4.74;81.09;100511.91;1714953;83;21071;-76
2022/01/27 08:23:40;;;;;;;19.57;12.78;;;;;;;4.80;81.11;100504.77;1714633;83;21712;-76
2022/01/27 08:26:09;;;;;;;19.80;13.30;;;;;;;4.87;81.13;100504.21;1714751;82;21126;-76
2022/01/27 08:28:41;;;;;;;16.60;11.93;;;;;;;4.91;80.93;100497.42;1714512;82;22482;-76
2022/01/27 08:31:04;;;;;;;13.65;9.10;;;;;;;4.92;80.77;100490.05;1713862;83;21090;-76
2022/01/27 08:33:37;;;;;;;19.00;11.63;;;;;;;4.95;80.81;100487.59;1714814;82;21130;-76
2022/01/27 08:36:02;;;;;;;16.95;12.47;;;;;;;4.98;80.73;100482.09;1714512;83;21557;-76
2022/01/27 08:38:29;;;;;;;17.45;12.43;;;;;;;5.00;80.57;100462.61;1715021;83;21759;-76
2022/01/27 08:40:59;;;;;;;13.40;9.83;;;;;;;5.00;80.61;100456.97;1715016;83;22569;-76
2022/01/27 08:43:25;;;;;;;13.90;9.80;;;;;;;5.03;80.59;100450.98;1709083;83;21155;-76
2022/01/27 08:45:53;;;;;;;11.48;8.60;;;;;;;5.10;80.60;100447.81;1697127;83;21080;-76
2022/01/27 08:48:21;;;;;;;8.50;5.62;;;;;;;5.14;80.48;100440.58;1697367;84;21084;-76
2022/01/27 08:50:58;;;;;;;5.92;4.42;;;;;;;5.23;80.64;100438.78;1697338;84;21102;-76
2022/01/27 08:53:19;;;;;;;6.85;4.33;;;;;;;5.30;80.39;100428.20;1696110;84;21805;-76
2022/01/27 08:55:46;;;;;;;5.28;3.92;;;;;;;5.31;80.18;100425.66;1697183;84;21636;-76
2022/01/27 08:58:13;;;;;;;7.42;5.72;;;;;;;5.37;80.16;100424.59;1697306;84;21097;-76
2022/01/27 09:00:41;;;;;;;9.13;5.92;;;;;;;5.41;80.08;100417.35;1697161;84;21128;-76
2022/01/27 09:03:08;;;;;;;6.30;4.03;;;;;;;5.44;79.95;100406.13;1697208;84;21168;-76
2022/01/27 09:05:35;;;;;;;6.05;5.45;;;;;;;5.49;79.86;100411.13;1697145;84;22560;-77
2022/01/27 09:08:02;;;;;;;6.03;4.05;;;;;;;5.57;79.88;100395.77;1696983;84;21049;-76
2022/01/27 09:10:32;;;;;;;6.75;4.20;;;;;;;5.65;79.74;100396.55;1696965;84;21100;-76
2022/01/27 09:12:57;;;;;;;4.05;3.20;;;;;;;5.72;79.54;100385.91;1696776;84;21085;-76
2022/01/27 09:15:24;;;;;;;5.83;4.45;;;;;;;5.71;79.25;100390.68;1697623;84;21131;-76
2022/01/27 09:17:50;;;;;;;5.45;4.92;;;;;;;5.69;79.20;100380.98;1697362;84;21702;-76
2022/01/27 09:20:17;;;;;;;5.62;5.08;;;;;;;5.70;79.16;100384.09;1697135;84;21287;-76
2022/01/27 09:22:44;;;;;;;3.33;2.47;;;;;;;5.68;79.00;100364.86;1697097;84;21403;-76
2022/01/27 09:25:16;;;;;;;2.52;2.20;;;;;;;5.65;78.99;100367.83;1697363;84;21161;-76
2022/01/27 09:27:39;;;;;;;3.08;2.40;;;;;;;5.68;78.92;100366.16;1696528;84;21144;-75
2022/01/27 09:30:07;;;;;;;4.40;3.00;;;;;;;5.65;78.73;100360.00;1697777;84;21824;-76
2022/01/27 09:32:34;;;;;;;3.47;2.37;;;;;;;5.65;78.83;100358.69;1697125;84;21060;-76
2022/01/27 09:35:00;;;;;;;3.25;2.47;;;;;;;5.70;78.80;100354.94;1697254;84;21029;-76
2022/01/27 09:37:27;;;;;;;2.50;2.30;;;;;;;5.74;78.91;100348.11;1697120;84;22398;-76
2022/01/27 09:39:54;;;;;;;2.42;2.00;;;;;;;5.78;78.91;100339.55;1697205;83;21156;-76
2022/01/27 09:42:22;;;;;;;2.40;2.05;;;;;;;5.88;79.00;100335.59;1696977;83;22598;-76
2022/01/27 09:44:52;;;;;;;2.27;1.70;;;;;;;5.96;78.93;100333.75;1710251;83;21082;-75
2022/01/27 09:47:17;;;;;;;3.58;2.17;;;;;;;6.02;78.61;100322.23;1714352;83;21052;-78
2022/01/27 09:49:54;;;;;;;1.87;1.60;;;;;;;6.03;78.51;100324.42;1714570;83;21106;-75
2022/01/27 09:52:18;;;;;;;2.00;1.65;;;;;;;6.11;78.64;100319.05;1714510;82;21608;-76
2022/01/27 09:54:45;;;;;;;3.02;2.77;;;;;;;6.20;78.41;100309.35;1715044;83;21721;-75
2022/01/27 09:57:16;;;;;;;3.45;2.62;;;;;;;6.29;78.47;100303.14;1714970;83;21134;-76
2022/01/27 09:59:46;;;;;;;3.72;3.17;;;;;;;6.47;78.51;100301.56;1691138;83;21118;-76
2022/01/27 10:02:21;;;;;;;4.72;4.20;;;;;;;6.58;78.27;100295.41;1714866;83;21635;-76
2022/01/27 10:04:50;;;;;;;5.53;3.27;;;;;;;6.65;78.21;100299.13;1714982;83;21087;-76
2022/01/27 10:07:26;;;;;;;5.67;4.80;;;;;;;6.78;78.14;100295.65;1715041;83;22580;-76
2022/01/27 10:10:02;;;;;;;3.70;2.67;;;;;;;6.84;78.05;100289.73;1714768;83;21095;-76
2022/01/27 10:12:34;;;;;;;6.70;6.00;;;;;;;6.81;77.66;100282.69;1715062;82;21090;-76
2022/01/27 10:15:06;;;;;;;4.83;3.67;;;;;;;6.74;77.84;100274.16;1714523;83;21104;-76
2022/01/27 10:17:37;;;;;;;3.95;3.55;;;;;;;6.73;77.72;100284.56;1714455;83;21098;-75
2022/01/27 10:20:02;;;;;;;1.70;1.50;;;;;;;6.69;77.50;100274.84;1714326;83;21843;-76
2022/01/27 10:22:28;;;;;;;1.95;1.70;;;;;;;6.63;77.43;100265.08;1714973;83;21098;-76
2022/01/27 10:25:08;;;;;;;2.20;1.50;;;;;;;6.57;77.32;100262.27;1715265;83;21117;-76
2022/01/27 10:27:45;;;;;;;2.72;1.50;;;;;;;6.55;77.49;100270.45;1715175;83;21232;-76
2022/01/27 10:30:36;;;;;;;2.37;1.50;;;;;;;6.61;77.49;100265.02;1712878;83;21086;-76
2022/01/27 10:32:48;;;;;;;2.27;1.32;;;;;;;6.59;77.59;100269.73;1711182;83;21781;-76
2022/01/27 10:35:16;;;;;;;2.02;1.55;;;;;;;6.53;77.32;100252.52;1714763;83;21303;-76
2022/01/27 10:38:08;;;;;;;1.82;1.50;;;;;;;6.48;77.32;100261.95;1714817;83;21118;-76
2022/01/27 10:40:42;;;;;;;2.35;1.50;;;;;;;6.39;77.22;100256.86;1714746;83;21199;-78
2022/01/27 10:43:16;;;;;;;1.67;1.42;;;;;;;6.27;77.14;100243.79;1715063;82;21106;-76
2022/01/27 10:46:07;;;;;;;;;;;;;;;6.19;77.34;100238.30;1699592;83;22618;-76
2022/01/27 10:48:34;;;;;;;2.77;2.17;;;;;;;6.15;77.54;100233.39;1696885;82;20633;-76
2022/01/27 10:51:05;;;;;;;4.17;3.12;;;;;;;6.13;77.72;100228.53;1696897;84;21065;-76
2022/01/27 10:53:55;;;;;;;10.90;6.33;;;;;;;6.14;77.91;100234.24;1696445;84;21172;-76
2022/01/27 10:56:26;;;;;;;7.65;6.40;;;;;;;6.17;77.92;100222.99;1694598;83;21490;-76
2022/01/27 10:58:53;;;;;;;3.20;2.77;;;;;;;6.21;77.98;100218.34;1697290;84;21763;-76
2022/01/27 11:01:29;;;;;;;4.20;3.55;;;;;;;6.21;77.85;100210.10;1697036;84;21123;-76
2022/01/27 11:04:02;;;;;;;3.25;2.83;;;;;;;6.22;77.94;100214.47;1697172;84;21109;-76
2022/01/27 11:06:31;;;;;;;3.33;2.33;;;;;;;6.28;77.99;100203.77;1697160;84;21112;-76
2022/01/27 11:08:58;;;;;;;3.72;2.90;;;;;;;6.25;77.96;100199.34;1697147;84;21100;-76
2022/01/27 11:11:26;;;;;;;3.27;2.72;;;;;;;6.31;78.17;100194.30;1696775;84;21841;-76
2022/01/27 11:13:54;;;;;;;2.40;2.00;;;;;;;6.39;78.19;100190.63;1696881;84;21089;-76
2022/01/27 11:16:30;;;;;;;2.60;2.02;;;;;;;6.48;78.18;100187.44;1697233;84;21115;-77
2022/01/27 11:19:00;;;;;;;4.85;3.42;;;;;;;6.53;78.11;100184.14;1696437;84;21137;-76
2022/01/27 11:21:31;;;;;;;2.65;2.20;;;;;;;6.61;78.11;100164.33;1696130;84;21110;-76
2022/01/27 11:24:06;;;;;;;4.83;2.90;;;;;;;6.71;78.18;100170.73;1696193;84;21939;-77
2022/01/27 11:26:30;;;;;;;2.40;2.05;;;;;;;6.82;78.00;100163.23;1697124;84;21057;-76
2022/01/27 11:28:57;;;;;;;2.08;1.67;;;;;;;6.88;77.91;100155.98;1697206;84;21108;-76
2022/01/27 11:31:41;;;;;;;6.03;4.42;;;;;;;6.86;77.65;100157.24;1697097;84;21596;-76
2022/01/27 11:34:10;;;;;;;4.70;3.95;;;;;;;6.80;77.59;100152.71;1697310;84;21152;-75
2022/01/27 11:36:37;;;;;;;3.92;2.70;;;;;;;6.77;77.54;100147.80;1697478;84;22571;-76
2022/01/27 11:39:11;;;;;;;5.05;2.52;;;;;;;6.71;77.46;100135.86;1697186;84;21248;-76
2022/01/27 11:41:43;;;;;;;6.17;3.70;;;;;;;6.61;77.39;100134.69;1696624;84;21100;-76
2022/01/27 11:44:28;;;;;;;3.65;2.22;;;;;;;6.53;77.55;100135.77;1696906;84;21293;-76
2022/01/27 11:47:20;;;;;;;5.30;3.37;;;;;;;6.52;77.60;100126.56;1696860;84;21100;-76
2022/01/27 11:50:06;;;;;;;4.40;3.12;;;;;;;6.53;77.73;100123.08;1696720;84;22035;-76
2022/01/27 11:52:32;;;;;;;7.10;5.00;;;;;;;6.52;77.75;100110.88;1696342;84;21359;-76
2022/01/27 11:55:26;;;;;;;4.85;3.25;;;;;;;6.50;77.92;100099.48;1697152;84;21096;-76
2022/01/27 11:57:56;;;;;;;6.28;3.85;;;;;;;6.52;78.01;100099.10;1697098;84;21108;-76
2022/01/27 12:00:31;;;;;;;4.55;3.08;;;;;;;6.49;77.94;100102.92;1697577;84;21101;-75
2022/01/27 12:03:08;;;;;;;5.90;4.30;;;;;;;6.47;78.03;100096.33;1697179;84;21764;-76